Belmont, Ohio
Current Conditions -  °F | °C
As of 9:53 AM on Thursday 30 Oct 2014 (Local Time) from KHLG Reporting Station
Scattered Clouds Scattered Clouds  
Wind Chill: 40°   Ceiling: Unl
Heat Index: 40°   Visibility: 10mi
Dew Point: 36°   Wind: 3mph
Humidity: 86%   Direction: 270°W
Pressure: 30.12"   Gusts: NA
Location:  40.03°N, 81.04°W
Report Text: KHLG 301353Z 27003KT 10SM SCT023 04/02 A3012 RMK AO2 SLP207 T00440022
Loading
Personal Weather Stations






























Interactive Weather Map
Tropical Storm Tracking
New forecast layout! Learn more

10-Day Weather Forecast

Advertisements
Track Severe Weather on mobile